createdAt,value
2023-05-14T00:01:15.123Z,19.48
2023-05-14T00:05:16.654Z,18.42
2023-05-14T00:09:19.185Z,21.58
2023-05-14T00:13:20.739Z,19.17
2023-05-14T00:17:23.713Z,24.85
2023-05-14T00:21:25.284Z,21.75
2023-05-14T00:25:27.025Z,20.63
2023-05-14T00:29:28.560Z,18.27
2023-05-14T00:33:31.423Z,20.38
2023-05-14T00:37:32.944Z,22.27
2023-05-14T00:41:34.458Z,18.10
2023-05-14T00:45:35.976Z,19.92
2023-05-14T00:49:39.030Z,20.88
2023-05-14T00:53:41.249Z,17.35
2023-05-14T00:57:43.394Z,17.80
2023-05-14T01:01:44.983Z,18.20
2023-05-14T01:05:56.098Z,20.13
2023-05-14T01:10:01.488Z,19.23
2023-05-14T01:14:10.943Z,16.83
2023-05-14T01:18:16.977Z,20.15
2023-05-14T01:22:19.864Z,19.15
2023-05-14T01:26:21.531Z,17.60
2023-05-14T01:30:29.399Z,15.60
2023-05-14T01:34:31.618Z,15.23
2023-05-14T01:38:36.364Z,19.33
2023-05-14T01:42:38.428Z,18.45
2023-05-14T01:46:40.045Z,22.13
2023-05-14T01:50:41.788Z,20.67
2023-05-14T01:54:44.769Z,20.90
2023-05-14T01:58:46.345Z,18.55
2023-05-14T02:02:47.978Z,25.30
2023-05-14T02:06:49.553Z,21.23
2023-05-14T02:10:52.465Z,21.50
2023-05-14T02:14:54.004Z,20.00
2023-05-14T02:18:55.544Z,21.20
2023-05-14T02:22:57.081Z,22.25
2023-05-14T02:27:00.041Z,21.77
2023-05-14T02:31:01.626Z,19.35
2023-05-14T02:35:03.486Z,23.17
2023-05-14T02:39:05.014Z,21.88
2023-05-14T02:43:07.854Z,19.20
2023-05-14T02:47:09.551Z,19.70
2023-05-14T02:51:11.613Z,17.30
2023-05-14T02:55:13.206Z,23.15
2023-05-14T02:59:16.077Z,23.98
2023-05-14T03:07:20.784Z,22.53
2023-05-14T03:11:22.470Z,21.10
2023-05-14T03:15:25.465Z,21.23
2023-05-14T03:19:27.001Z,26.50
2023-05-14T03:23:28.689Z,21.48
2023-05-14T03:27:30.196Z,27.48
2023-05-14T03:31:33.201Z,20.60
2023-05-14T03:35:34.750Z,21.10
2023-05-14T03:39:36.362Z,22.13
2023-05-14T03:43:37.886Z,22.02
2023-05-14T03:47:40.765Z,19.80
2023-05-14T03:51:42.294Z,23.73
2023-05-14T03:55:43.813Z,20.55
2023-05-14T03:59:45.319Z,23.13
2023-05-14T04:03:48.331Z,23.08
2023-05-14T04:07:49.923Z,20.13
2023-05-14T04:11:51.494Z,19.50
2023-05-14T04:15:53.040Z,22.02
2023-05-14T04:19:55.901Z,22.80
2023-05-14T04:23:57.483Z,21.55
2023-05-14T04:27:58.984Z,19.20
2023-05-14T04:32:00.540Z,17.55
2023-05-14T04:36:03.947Z,22.63
2023-05-14T04:40:07.939Z,18.45
2023-05-14T04:44:09.497Z,21.63
2023-05-14T04:48:11.035Z,16.83
2023-05-14T04:52:13.931Z,23.30
2023-05-14T04:56:15.420Z,18.80
2023-05-14T05:00:17.406Z,24.75
2023-05-14T05:04:18.997Z,22.13
2023-05-14T05:08:21.874Z,21.38
2023-05-14T05:12:23.368Z,18.85
2023-05-14T05:16:25.175Z,15.85
2023-05-14T05:20:26.797Z,20.85
2023-05-14T05:24:29.668Z,16.80
2023-05-14T05:28:31.201Z,17.67
2023-05-14T05:32:32.766Z,14.77
2023-05-14T05:36:34.335Z,13.75
2023-05-14T05:40:37.210Z,12.68
2023-05-14T05:44:38.724Z,12.65
2023-05-14T05:48:40.259Z,11.98
2023-05-14T05:52:41.842Z,13.32
2023-05-14T05:56:44.765Z,11.93
2023-05-14T06:00:46.871Z,12.90
2023-05-14T06:04:48.438Z,12.38
2023-05-14T06:08:49.989Z,13.30
2023-05-14T06:12:52.865Z,12.55
2023-05-14T06:16:54.456Z,14.27
2023-05-14T06:20:56.024Z,12.70
2023-05-14T06:24:57.750Z,13.65
2023-05-14T06:29:00.615Z,13.38
2023-05-14T06:33:02.195Z,14.27
2023-05-14T06:37:03.960Z,13.73
2023-05-14T06:41:05.554Z,11.60
2023-05-14T06:45:09.190Z,11.73
2023-05-14T06:49:10.862Z,10.38
2023-05-14T06:53:12.719Z,15.05
2023-05-14T06:57:14.254Z,11.52
2023-05-14T07:01:17.231Z,10.90
2023-05-14T07:05:18.780Z,10.07
2023-05-14T07:09:20.280Z,10.25
2023-05-14T07:13:21.764Z,10.52
2023-05-14T07:17:24.788Z,10.77
2023-05-14T07:21:26.519Z,11.50
2023-05-14T07:25:28.047Z,12.00
2023-05-14T07:29:29.633Z,10.02
2023-05-14T07:33:32.662Z,10.23
2023-05-14T07:41:35.625Z,10.27
2023-05-14T07:45:37.645Z,9.57
2023-05-14T07:49:40.547Z,12.38
2023-05-14T07:53:42.069Z,9.95
2023-05-14T07:57:43.601Z,13.23
2023-05-14T08:01:45.163Z,8.43
2023-05-14T08:05:48.077Z,9.68
2023-05-14T08:09:49.603Z,8.02
2023-05-14T08:13:51.124Z,8.30
2023-05-14T08:17:52.740Z,8.20
2023-05-14T08:21:55.699Z,8.20
2023-05-14T08:25:57.250Z,8.15
2023-05-14T08:29:58.847Z,7.55
2023-05-14T08:34:00.366Z,6.50
2023-05-14T08:38:03.218Z,6.60
2023-05-14T08:46:10.950Z,7.13
2023-05-14T08:50:12.657Z,5.38
2023-05-14T08:54:17.358Z,5.85
2023-05-14T08:58:19.239Z,8.77
2023-05-14T09:02:23.323Z,7.50
2023-05-14T09:06:27.114Z,5.60
2023-05-14T09:10:29.996Z,7.80
2023-05-14T09:14:33.292Z,10.38
2023-05-14T09:18:36.397Z,7.18
2023-05-14T09:22:38.725Z,4.97
2023-05-14T09:26:41.642Z,11.85
2023-05-14T09:34:48.204Z,5.47
2023-05-14T09:38:49.731Z,10.73
2023-05-14T09:42:52.590Z,6.78
2023-05-14T09:46:54.568Z,6.38
2023-05-14T09:50:56.480Z,12.05
2023-05-14T09:54:58.399Z,10.02
2023-05-14T09:59:01.552Z,7.45
2023-05-14T10:03:05.712Z,9.65
2023-05-14T10:07:07.567Z,6.13
2023-05-14T10:11:13.935Z,10.15
2023-05-14T10:15:21.354Z,6.10
2023-05-14T10:19:24.802Z,7.30
2023-05-14T10:23:27.133Z,5.72
2023-05-14T10:27:29.055Z,7.47
2023-05-14T10:31:51.726Z,6.22
2023-05-14T10:36:01.279Z,5.40
2023-05-14T10:40:04.144Z,6.35
2023-05-14T10:44:08.518Z,5.22
2023-05-14T10:48:11.823Z,6.32
2023-05-14T10:52:13.461Z,7.70
2023-05-14T10:56:18.078Z,6.78
2023-05-14T11:00:19.809Z,4.65
2023-05-14T11:04:24.566Z,5.88
2023-05-14T11:08:28.013Z,5.55
2023-05-14T11:12:31.611Z,8.10
2023-05-14T11:16:33.867Z,5.85
2023-05-14T11:20:37.334Z,5.27
2023-05-14T11:24:38.871Z,5.68
2023-05-14T11:28:40.573Z,6.22
2023-05-14T11:32:44.352Z,7.05
2023-05-14T11:36:47.220Z,5.78
2023-05-14T11:40:51.981Z,5.45
2023-05-14T11:44:53.807Z,6.05
2023-05-14T11:48:55.318Z,5.30
2023-05-14T11:52:58.171Z,6.13
2023-05-14T11:57:01.427Z,7.95
2023-05-14T12:01:03.003Z,7.65
2023-05-14T12:05:06.128Z,6.15
2023-05-14T12:09:12.810Z,6.80
2023-05-14T12:13:15.670Z,7.50
2023-05-14T12:17:18.790Z,6.38
2023-05-14T12:21:20.395Z,8.05
2023-05-14T12:25:25.898Z,9.18
2023-05-14T12:29:27.400Z,13.25
2023-05-14T12:33:29.013Z,9.00
2023-05-14T12:37:31.319Z,7.07
2023-05-14T12:41:34.317Z,8.75
2023-05-14T12:45:35.901Z,8.32
2023-05-14T12:49:37.423Z,6.65
2023-05-14T12:53:39.019Z,6.45
2023-05-14T12:57:42.019Z,7.50
2023-05-14T13:05:44.965Z,9.48
2023-05-14T13:09:46.568Z,9.30
2023-05-14T13:13:49.434Z,7.82
2023-05-14T13:17:50.967Z,9.00
2023-05-14T13:21:52.506Z,11.23
2023-05-14T13:25:54.030Z,9.30
2023-05-14T13:29:57.039Z,10.77
2023-05-14T13:33:58.567Z,19.30
2023-05-14T13:38:00.236Z,16.13
2023-05-14T13:42:01.771Z,13.48
2023-05-14T13:46:05.823Z,12.50
2023-05-14T13:50:08.164Z,17.15
2023-05-14T13:54:09.756Z,25.43
2023-05-14T13:58:11.431Z,24.02
2023-05-14T14:02:14.912Z,15.73
2023-05-14T14:06:16.459Z,17.73
2023-05-14T14:10:17.982Z,18.25
2023-05-14T14:14:19.519Z,22.00
2023-05-14T14:18:22.381Z,21.52
2023-05-14T14:22:27.183Z,23.15
2023-05-14T14:26:30.569Z,22.58
2023-05-14T14:30:32.605Z,16.25
2023-05-14T14:34:35.480Z,14.98
2023-05-14T14:38:37.174Z,14.02
2023-05-14T14:42:38.665Z,10.55
2023-05-14T14:46:40.152Z,10.98
2023-05-14T14:50:43.021Z,13.27
2023-05-14T14:54:44.526Z,8.38
2023-05-14T14:58:46.048Z,10.43
2023-05-14T15:02:47.678Z,12.45
2023-05-14T15:06:50.604Z,11.85
2023-05-14T15:10:52.266Z,11.63
2023-05-14T15:14:53.793Z,8.93
2023-05-14T15:18:55.413Z,8.02
2023-05-14T15:22:58.539Z,9.52
2023-05-14T15:27:01.185Z,8.48
2023-05-14T15:31:03.083Z,7.18
2023-05-14T15:35:05.412Z,10.68
2023-05-14T15:39:08.276Z,8.37
2023-05-14T15:43:09.776Z,7.43
2023-05-14T15:47:11.276Z,7.00
2023-05-14T15:51:13.621Z,8.10
2023-05-14T15:55:16.595Z,7.03
2023-05-14T15:59:18.256Z,6.53
2023-05-14T16:03:19.860Z,7.35
2023-05-14T16:07:21.638Z,7.90
2023-05-14T16:11:24.488Z,5.80
2023-05-14T16:15:26.115Z,5.95
2023-05-14T16:19:27.859Z,10.45
2023-05-14T16:23:29.434Z,7.93
2023-05-14T16:27:32.372Z,7.07
2023-05-14T16:31:33.930Z,6.32
2023-05-14T16:35:35.508Z,5.88
2023-05-14T16:39:37.012Z,6.38
2023-05-14T16:43:39.856Z,5.95
2023-05-14T16:47:41.378Z,6.20
2023-05-14T16:51:42.917Z,4.80
2023-05-14T16:55:44.433Z,14.68
2023-05-14T16:59:47.359Z,6.05
2023-05-14T17:03:48.871Z,5.38
2023-05-14T17:07:50.377Z,7.03
2023-05-14T17:11:51.929Z,7.28
2023-05-14T17:15:55.096Z,6.90
2023-05-14T17:23:58.486Z,7.30
2023-05-14T17:28:00.011Z,7.97
2023-05-14T17:32:03.212Z,9.07
2023-05-14T17:36:05.075Z,6.30
2023-05-14T17:40:07.661Z,8.73
2023-05-14T17:44:10.735Z,10.50
2023-05-14T17:48:15.498Z,4.90
2023-05-14T17:52:17.170Z,8.25
2023-05-14T17:56:19.161Z,10.43
2023-05-14T18:00:20.863Z,8.43
2023-05-14T18:04:23.715Z,5.65
2023-05-14T18:08:25.263Z,7.88
2023-05-14T18:12:26.794Z,6.90
2023-05-14T18:16:28.421Z,7.68
2023-05-14T18:20:33.426Z,8.18
2023-05-14T18:24:36.319Z,8.60
2023-05-14T18:28:37.926Z,8.70
2023-05-14T18:32:39.487Z,10.35
2023-05-14T18:36:42.396Z,9.45
2023-05-14T18:40:43.920Z,7.53
2023-05-14T18:44:45.435Z,8.27
2023-05-14T18:48:46.996Z,10.15
2023-05-14T18:52:49.874Z,9.52
2023-05-14T18:56:51.415Z,9.30
2023-05-14T19:00:52.954Z,10.40
2023-05-14T19:04:54.454Z,10.48
2023-05-14T19:08:57.370Z,10.25
2023-05-14T19:12:59.129Z,9.48
2023-05-14T19:17:00.810Z,19.45
2023-05-14T19:21:02.342Z,14.23
2023-05-14T19:25:07.749Z,13.82
2023-05-14T19:29:09.922Z,13.73
2023-05-14T19:33:11.418Z,12.63
2023-05-14T19:37:12.983Z,14.65
2023-05-14T19:41:15.853Z,10.13
2023-05-14T19:45:17.416Z,10.43
2023-05-14T19:49:18.961Z,13.68
2023-05-14T19:53:20.501Z,13.98
2023-05-14T19:57:23.386Z,12.35
2023-05-14T20:01:25.072Z,15.32
2023-05-14T20:05:26.715Z,14.77
2023-05-14T20:09:28.268Z,12.30
2023-05-14T20:13:31.184Z,9.32
2023-05-14T20:17:32.741Z,11.18
2023-05-14T20:21:34.298Z,11.02
2023-05-14T20:25:35.856Z,10.43
2023-05-14T20:29:38.740Z,10.07
2023-05-14T20:33:40.275Z,11.35
2023-05-14T20:37:41.810Z,11.05
2023-05-14T20:41:43.350Z,8.77
2023-05-14T20:45:46.228Z,11.57
2023-05-14T20:49:48.079Z,9.13
2023-05-14T20:53:49.604Z,9.52
2023-05-14T20:57:51.138Z,14.93
2023-05-14T21:01:54.040Z,10.13
2023-05-14T21:05:55.622Z,11.73
2023-05-14T21:09:57.161Z,8.25
2023-05-14T21:13:58.683Z,8.75
2023-05-14T21:18:02.039Z,12.25
2023-05-14T21:22:03.618Z,10.05
2023-05-14T21:26:05.146Z,10.02
2023-05-14T21:30:07.928Z,7.60
2023-05-14T21:34:10.796Z,12.38
2023-05-14T21:38:12.406Z,8.77
2023-05-14T21:42:13.965Z,7.03
2023-05-14T21:46:15.631Z,6.28
2023-05-14T21:50:18.646Z,6.88
2023-05-14T21:54:20.463Z,8.95
2023-05-14T21:58:22.047Z,8.02
2023-05-14T22:02:23.736Z,7.38
2023-05-14T22:06:26.818Z,9.93
2023-05-14T22:10:30.424Z,9.38
2023-05-14T22:14:31.941Z,8.52
2023-05-14T22:18:33.484Z,9.00
2023-05-14T22:22:37.024Z,8.68
2023-05-14T22:26:38.545Z,7.55
2023-05-14T22:30:40.056Z,8.73
2023-05-14T22:34:41.627Z,7.38
2023-05-14T22:38:44.499Z,15.07
2023-05-14T22:42:46.012Z,9.82
2023-05-14T22:46:47.642Z,8.38
2023-05-14T22:50:49.170Z,9.60
2023-05-14T22:54:52.048Z,8.38
2023-05-14T22:58:53.574Z,9.80
2023-05-14T23:02:55.135Z,8.18
2023-05-14T23:06:57.643Z,9.60
2023-05-14T23:11:00.568Z,10.63
2023-05-14T23:15:02.127Z,10.68
2023-05-14T23:19:03.713Z,7.38
2023-05-14T23:23:05.531Z,11.82
2023-05-14T23:27:08.607Z,12.05
2023-05-14T23:35:11.818Z,11.48
2023-05-14T23:39:13.470Z,10.13
2023-05-14T23:43:16.336Z,9.65
2023-05-14T23:47:17.869Z,10.23
2023-05-14T23:51:19.408Z,9.90
2023-05-14T23:55:21.523Z,8.93
2023-05-14T23:59:24.401Z,8.45
